ADDS METAR Data INFO
IDs: Format: Raw Decoded Include TAF

Data at: 1611 UTC 19 Oct 2017

KPAE 191553Z 14012KT 10SM FEW008 SCT070 OVC090 11/09 A2955 RMK AO2 SLP005 T01060094 $

KPAE 191306Z 1913/2012 15013G24KT P6SM BKN015 BKN025 OVC060
  FM191800 17015G25KT P6SM -SHRA BKN020 OVC070
  FM200400 19012G20KT P6SM -SHRA BKN020 OVC050


KAWO 191556Z AUTO 14013KT 10SM FEW017 OVC100 12/09 A2955 RMK AO2 SLP011 T01170089
No TAF found for KAWO

KBFI 191553Z 15009KT 7SM -RA FEW020 OVC070 12/11 A2957 RMK AO2 SLP014 P0002 T01170106 $

KBFI 191454Z 1915/2012 17009KT P6SM -RA FEW008 BKN026 OVC035
  TEMPO 1915/1919 SCT030 BKN060
  FM191900 19010KT P6SM -SHRA BKN025 OVC070


KRNT 191553Z 09005KT 7SM -RA BKN026 OVC049 12/12 A2958 RMK AO2 RAE19B23 SLP020 P0003 T01170117
No TAF found for KRNT

KSEA 191607Z 17008KT 8SM -RA FEW015 BKN028 OVC050 11/11 A2958 RMK AO2 P0001 T01110106

KSEA 191454Z 1915/2018 17007KT P6SM -RA FEW006 BKN023 OVC030
  TEMPO 1915/1919 SCT030 BKN060
  FM191900 19010KT P6SM -SHRA BKN020 OVC060